sensor_id;sensor_type;location;lat;lon;timestamp;pressure;altitude;pressure_sealevel;temperature;humidity
3917;BME280;1973;50.518;7.318;2023-01-27T00:00:12;101482.75;;;3.29;100.00
3917;BME280;1973;50.518;7.318;2023-01-27T00:02:41;101488.19;;;3.29;100.00
3917;BME280;1973;50.518;7.318;2023-01-27T00:05:09;101483.31;;;3.32;100.00
3917;BME280;1973;50.518;7.318;2023-01-27T00:07:36;101487.91;;;3.32;100.00
3917;BME280;1973;50.518;7.318;2023-01-27T00:10:04;101483.59;;;3.29;100.00
3917;BME280;1973;50.518;7.318;2023-01-27T00:12:30;101485.63;;;3.27;100.00
3917;BME280;1973;50.518;7.318;2023-01-27T00:15:16;101481.34;;;3.25;100.00
3917;BME280;1973;50.518;7.318;2023-01-27T00:17:42;101474.34;;;3.22;100.00
3917;BME280;1973;50.518;7.318;2023-01-27T00:20:09;101473.66;;;3.20;100.00
3917;BME280;1973;50.518;7.318;2023-01-27T00:22:36;101470.75;;;3.22;100.00
3917;BME280;1973;50.518;7.318;2023-01-27T00:25:21;101476.19;;;3.22;100.00
3917;BME280;1973;50.518;7.318;2023-01-27T00:27:48;101475.91;;;3.25;100.00
3917;BME280;1973;50.518;7.318;2023-01-27T00:30:14;101474.75;;;3.27;100.00
3917;BME280;1973;50.518;7.318;2023-01-27T00:32:41;101480.19;;;3.27;100.00
3917;BME280;1973;50.518;7.318;2023-01-27T00:35:26;101479.03;;;3.30;100.00
3917;BME280;1973;50.518;7.318;2023-01-27T00:37:52;101470.72;;;3.31;100.00
3917;BME280;1973;50.518;7.318;2023-01-27T00:40:19;101481.28;;;3.34;100.00
3917;BME280;1973;50.518;7.318;2023-01-27T00:42:45;101478.56;;;3.34;100.00
3917;BME280;1973;50.518;7.318;2023-01-27T00:45:11;101474.84;;;3.35;100.00
3917;BME280;1973;50.518;7.318;2023-01-27T00:47:56;101480.13;;;3.37;100.00
3917;BME280;1973;50.518;7.318;2023-01-27T00:50:22;101474.69;;;3.37;100.00
3917;BME280;1973;50.518;7.318;2023-01-27T00:52:49;101474.69;;;3.37;100.00
3917;BME280;1973;50.518;7.318;2023-01-27T00:55:17;101484.56;;;3.38;100.00
3917;BME280;1973;50.518;7.318;2023-01-27T00:57:43;101475.72;;;3.36;100.00
3917;BME280;1973;50.518;7.318;2023-01-27T01:00:10;101469.56;;;3.34;100.00
3917;BME280;1973;50.518;7.318;2023-01-27T01:02:37;101473.13;;;3.34;100.00
3917;BME280;1973;50.518;7.318;2023-01-27T01:05:04;101474.84;;;3.35;100.00
3917;BME280;1973;50.518;7.318;2023-01-27T01:07:30;101475.53;;;3.37;100.00
3917;BME280;1973;50.518;7.318;2023-01-27T01:09:57;101468.25;;;3.38;100.00
3917;BME280;1973;50.518;7.318;2023-01-27T01:12:23;101478.97;;;3.39;100.00
3917;BME280;1973;50.518;7.318;2023-01-27T01:14:50;101477.81;;;3.42;100.00
3917;BME280;1973;50.518;7.318;2023-01-27T01:17:16;101492.09;;;3.44;100.00
3917;BME280;1973;50.518;7.318;2023-01-27T01:19:42;101478.38;;;3.46;100.00
3917;BME280;1973;50.518;7.318;2023-01-27T01:22:09;101488.94;;;3.49;100.00
3917;BME280;1973;50.518;7.318;2023-01-27T01:24:35;101489.47;;;3.52;100.00
3917;BME280;1973;50.518;7.318;2023-01-27T01:27:02;101493.78;;;3.55;100.00
3917;BME280;1973;50.518;7.318;2023-01-27T01:29:28;101499.91;;;3.57;100.00
3917;BME280;1973;50.518;7.318;2023-01-27T01:31:55;101497.88;;;3.59;100.00
3917;BME280;1973;50.518;7.318;2023-01-27T01:34:21;101497.88;;;3.59;100.00
3917;BME280;1973;50.518;7.318;2023-01-27T01:36:47;101505.91;;;3.60;100.00
3917;BME280;1973;50.518;7.318;2023-01-27T01:39:14;101504.91;;;3.61;100.00
3917;BME280;1973;50.518;7.318;2023-01-27T01:41:40;101510.34;;;3.61;100.00
3917;BME280;1973;50.518;7.318;2023-01-27T01:44:25;101507.47;;;3.63;100.00
3917;BME280;1973;50.518;7.318;2023-01-27T01:46:52;101502.88;;;3.63;100.00
3917;BME280;1973;50.518;7.318;2023-01-27T01:49:24;101503.44;;;3.67;100.00
3917;BME280;1973;50.518;7.318;2023-01-27T01:51:59;101504.16;;;3.69;100.00
3917;BME280;1973;50.518;7.318;2023-01-27T01:54:37;101496.66;;;3.71;100.00
3917;BME280;1973;50.518;7.318;2023-01-27T01:57:20;101504.69;;;3.72;100.00
3917;BME280;1973;50.518;7.318;2023-01-27T01:59:58;101490.91;;;3.74;100.00
3917;BME280;1973;50.518;7.318;2023-01-27T02:02:26;101490.75;;;3.75;100.00
3917;BME280;1973;50.518;7.318;2023-01-27T02:08:20;101497.06;;;3.76;100.00
3917;BME280;1973;50.518;7.318;2023-01-27T02:10:50;101500.47;;;3.78;100.00
3917;BME280;1973;50.518;7.318;2023-01-27T02:13:20;101498.78;;;3.77;100.00
3917;BME280;1973;50.518;7.318;2023-01-27T02:15:47;101504.25;;;3.77;100.00
3917;BME280;1973;50.518;7.318;2023-01-27T02:18:13;101493.34;;;3.77;100.00
3917;BME280;1973;50.518;7.318;2023-01-27T02:20:45;101500.47;;;3.78;100.00
3917;BME280;1973;50.518;7.318;2023-01-27T02:23:45;101502.53;;;3.76;100.00
3917;BME280;1973;50.518;7.318;2023-01-27T02:26:17;101504.53;;;3.74;100.00
3917;BME280;1973;50.518;7.318;2023-01-27T02:28:54;101509.97;;;3.74;100.00
3917;BME280;1973;50.518;7.318;2023-01-27T02:31:21;101497.38;;;3.73;100.00
3917;BME280;1973;50.518;7.318;2023-01-27T02:33:49;101499.38;;;3.71;100.00
3917;BME280;1973;50.518;7.318;2023-01-27T02:36:17;101503.13;;;3.70;100.00
3917;BME280;1973;50.518;7.318;2023-01-27T02:38:46;101500.38;;;3.70;100.00
3917;BME280;1973;50.518;7.318;2023-01-27T02:41:24;101501.44;;;3.69;100.00
3917;BME280;1973;50.518;7.318;2023-01-27T02:43:54;101496.97;;;3.68;100.00
3917;BME280;1973;50.518;7.318;2023-01-27T02:46:21;101501.56;;;3.67;100.00
3917;BME280;1973;50.518;7.318;2023-01-27T02:48:48;101499.69;;;3.68;100.00
3917;BME280;1973;50.518;7.318;2023-01-27T02:51:14;101504.28;;;3.67;100.00
3917;BME280;1973;50.518;7.318;2023-01-27T02:53:40;101507.19;;;3.66;100.00
3917;BME280;1973;50.518;7.318;2023-01-27T02:56:07;101502.75;;;3.65;100.00
3917;BME280;1973;50.518;7.318;2023-01-27T02:58:34;101513.63;;;3.65;100.00
3917;BME280;1973;50.518;7.318;2023-01-27T03:01:00;101516.34;;;3.65;100.00
3917;BME280;1973;50.518;7.318;2023-01-27T03:03:26;101501.75;;;3.66;100.00
3917;BME280;1973;50.518;7.318;2023-01-27T03:05:53;101511.47;;;3.68;100.00
3917;BME280;1973;50.518;7.318;2023-01-27T03:08:19;101513.00;;;3.71;100.00
3917;BME280;1973;50.518;7.318;2023-01-27T03:10:53;101515.72;;;3.71;100.00
3917;BME280;1973;50.518;7.318;2023-01-27T03:13:21;101516.72;;;3.70;100.00
3917;BME280;1973;50.518;7.318;2023-01-27T03:15:48;101515.19;;;3.67;100.00
3917;BME280;1973;50.518;7.318;2023-01-27T03:18:34;101518.91;;;3.66;100.00
3917;BME280;1973;50.518;7.318;2023-01-27T03:21:04;101515.34;;;3.66;100.00
3917;BME280;1973;50.518;7.318;2023-01-27T03:23:31;101514.50;;;3.65;100.00
3917;BME280;1973;50.518;7.318;2023-01-27T03:26:01;101529.78;;;3.66;100.00
3917;BME280;1973;50.518;7.318;2023-01-27T03:28:30;101515.81;;;3.61;100.00
3917;BME280;1973;50.518;7.318;2023-01-27T03:31:04;101520.53;;;3.59;100.00
3917;BME280;1973;50.518;7.318;2023-01-27T03:33:31;101524.09;;;3.60;100.00
3917;BME280;1973;50.518;7.318;2023-01-27T03:36:00;101523.41;;;3.58;100.00
3917;BME280;1973;50.518;7.318;2023-01-27T03:38:46;101527.28;;;3.55;100.00
3917;BME280;1973;50.518;7.318;2023-01-27T03:41:31;101530.16;;;3.54;100.00
3917;BME280;1973;50.518;7.318;2023-01-27T03:44:16;101527.59;;;3.52;100.00
3917;BME280;1973;50.518;7.318;2023-01-27T03:47:01;101524.19;;;3.50;100.00
3917;BME280;1973;50.518;7.318;2023-01-27T03:49:27;101522.59;;;3.48;100.00
3917;BME280;1973;50.518;7.318;2023-01-27T03:51:53;101534.50;;;3.47;100.00
3917;BME280;1973;50.518;7.318;2023-01-27T03:54:20;101539.97;;;3.47;100.00
3917;BME280;1973;50.518;7.318;2023-01-27T03:56:46;101527.66;;;3.42;100.00
3917;BME280;1973;50.518;7.318;2023-01-27T03:59:13;101546.84;;;3.41;100.00
3917;BME280;1973;50.518;7.318;2023-01-27T04:01:40;101534.53;;;3.37;100.00
3917;BME280;1973;50.518;7.318;2023-01-27T04:04:09;101536.41;;;3.36;100.00
3917;BME280;1973;50.518;7.318;2023-01-27T04:06:55;101540.84;;;3.37;100.00
3917;BME280;1973;50.518;7.318;2023-01-27T04:09:26;101538.28;;;3.36;100.00
3917;BME280;1973;50.518;7.318;2023-01-27T04:11:54;101544.88;;;3.33;100.00
3917;BME280;1973;50.518;7.318;2023-01-27T04:14:26;101538.75;;;3.31;100.00
3917;BME280;1973;50.518;7.318;2023-01-27T04:17:00;101548.03;;;3.29;100.00
3917;BME280;1973;50.518;7.318;2023-01-27T04:19:27;101544.75;;;3.25;100.00
3917;BME280;1973;50.518;7.318;2023-01-27T04:21:56;101544.06;;;3.23;100.00
3917;BME280;1973;50.518;7.318;2023-01-27T04:24:23;101545.25;;;3.21;100.00
3917;BME280;1973;50.518;7.318;2023-01-27T04:27:04;101540.66;;;3.21;100.00
3917;BME280;1973;50.518;7.318;2023-01-27T04:29:33;101539.94;;;3.19;100.00
3917;BME280;1973;50.518;7.318;2023-01-27T04:32:02;101533.50;;;3.20;100.00
3917;BME280;1973;50.518;7.318;2023-01-27T04:34:29;101544.50;;;3.19;100.00
3917;BME280;1973;50.518;7.318;2023-01-27T04:36:57;101547.41;;;3.17;100.00
3917;BME280;1973;50.518;7.318;2023-01-27T04:39:24;101548.41;;;3.16;100.00
3917;BME280;1973;50.518;7.318;2023-01-27T04:41:51;101547.22;;;3.19;100.00
3917;BME280;1973;50.518;7.318;2023-01-27T04:44:17;101550.69;;;3.21;100.00
3917;BME280;1973;50.518;7.318;2023-01-27T04:46:47;101552.53;;;3.20;100.00
3917;BME280;1973;50.518;7.318;2023-01-27T04:49:14;101554.94;;;3.23;100.00
3917;BME280;1973;50.518;7.318;2023-01-27T04:51:41;101554.94;;;3.23;100.00
3917;BME280;1973;50.518;7.318;2023-01-27T04:54:07;101554.66;;;3.26;100.00
3917;BME280;1973;50.518;7.318;2023-01-27T04:56:39;101558.09;;;3.28;100.00
3917;BME280;1973;50.518;7.318;2023-01-27T04:59:09;101556.06;;;3.30;100.00
3917;BME280;1973;50.518;7.318;2023-01-27T05:01:36;101558.09;;;3.28;100.00
3917;BME280;1973;50.518;7.318;2023-01-27T05:04:03;101562.69;;;3.28;100.00
3917;BME280;1973;50.518;7.318;2023-01-27T05:06:29;101551.06;;;3.26;100.00
3917;BME280;1973;50.518;7.318;2023-01-27T05:08:56;101554.66;;;3.26;100.00
3917;BME280;1973;50.518;7.318;2023-01-27T05:11:22;101560.81;;;3.28;100.00
3917;BME280;1973;50.518;7.318;2023-01-27T05:13:49;101559.09;;;3.27;100.00
3917;BME280;1973;50.518;7.318;2023-01-27T05:16:21;101568.25;;;3.26;100.00
3917;BME280;1973;50.518;7.318;2023-01-27T05:18:50;101570.66;;;3.29;100.00
3917;BME280;1973;50.518;7.318;2023-01-27T05:21:19;101563.53;;;3.28;100.00
3917;BME280;1973;50.518;7.318;2023-01-27T05:23:47;101571.53;;;3.30;100.00
3917;BME280;1973;50.518;7.318;2023-01-27T05:26:17;101573.38;;;3.29;100.00
3917;BME280;1973;50.518;7.318;2023-01-27T05:28:45;101570.66;;;3.29;100.00
3917;BME280;1973;50.518;7.318;2023-01-27T05:31:23;101585.31;;;3.28;100.00
3917;BME280;1973;50.518;7.318;2023-01-27T05:33:52;101582.41;;;3.30;100.00
3917;BME280;1973;50.518;7.318;2023-01-27T05:36:20;101584.28;;;3.29;100.00
3917;BME280;1973;50.518;7.318;2023-01-27T05:38:47;101586.72;;;3.32;100.00
3917;BME280;1973;50.518;7.318;2023-01-27T05:41:15;101590.13;;;3.34;100.00
3917;BME280;1973;50.518;7.318;2023-01-27T05:43:43;101586.72;;;3.32;100.00
3917;BME280;1973;50.518;7.318;2023-01-27T05:46:11;101584.00;;;3.32;100.00
3917;BME280;1973;50.518;7.318;2023-01-27T05:48:40;101595.03;;;3.31;100.00
3917;BME280;1973;50.518;7.318;2023-01-27T05:51:07;101602.00;;;3.33;100.00
3917;BME280;1973;50.518;7.318;2023-01-27T05:53:34;101591.31;;;3.32;100.00
3917;BME280;1973;50.518;7.318;2023-01-27T05:56:02;101604.75;;;3.33;100.00
3917;BME280;1973;50.518;7.318;2023-01-27T05:58:28;101597.31;;;3.35;100.00
3917;BME280;1973;50.518;7.318;2023-01-27T06:01:05;101595.28;;;3.37;100.00
3917;BME280;1973;50.518;7.318;2023-01-27T06:03:32;101600.72;;;3.37;100.00
3917;BME280;1973;50.518;7.318;2023-01-27T06:05:58;101601.72;;;3.36;100.00
3917;BME280;1973;50.518;7.318;2023-01-27T06:08:25;101598.00;;;3.37;100.00
3917;BME280;1973;50.518;7.318;2023-01-27T06:10:53;101599.72;;;3.38;100.00
3917;BME280;1973;50.518;7.318;2023-01-27T06:13:21;101603.44;;;3.37;100.00
3917;BME280;1973;50.518;7.318;2023-01-27T06:15:48;101607.16;;;3.36;100.00
3917;BME280;1973;50.518;7.318;2023-01-27T06:18:16;101614.03;;;3.40;100.00
3917;BME280;1973;50.518;7.318;2023-01-27T06:20:44;101614.75;;;3.42;100.00
3917;BME280;1973;50.518;7.318;2023-01-27T06:23:12;101620.88;;;3.44;100.00
3917;BME280;1973;50.518;7.318;2023-01-27T06:25:41;101612.72;;;3.44;100.00
3917;BME280;1973;50.518;7.318;2023-01-27T06:28:08;101610.16;;;3.43;100.00
3917;BME280;1973;50.518;7.318;2023-01-27T06:30:40;101620.50;;;3.39;100.00
3917;BME280;1973;50.518;7.318;2023-01-27T06:33:07;101619.47;;;3.40;100.00
3917;BME280;1973;50.518;7.318;2023-01-27T06:35:35;101613.03;;;3.41;100.00
3917;BME280;1973;50.518;7.318;2023-01-27T06:38:03;101621.91;;;3.43;100.00
3917;BME280;1973;50.518;7.318;2023-01-27T06:40:31;101613.28;;;3.48;100.00
3917;BME280;1973;50.518;7.318;2023-01-27T06:42:58;101617.59;;;3.51;100.00
3917;BME280;1973;50.518;7.318;2023-01-27T06:45:25;101620.00;;;3.54;100.00
3917;BME280;1973;50.518;7.318;2023-01-27T06:47:56;101619.00;;;3.55;100.00
3917;BME280;1973;50.518;7.318;2023-01-27T06:50:25;101626.88;;;3.58;100.00
3917;BME280;1973;50.518;7.318;2023-01-27T06:52:52;101627.41;;;3.61;100.00
3917;BME280;1973;50.518;7.318;2023-01-27T06:55:25;101628.97;;;3.64;100.00
3917;BME280;1973;50.518;7.318;2023-01-27T06:57:51;101626.97;;;3.66;100.00
3917;BME280;1973;50.518;7.318;2023-01-27T07:00:18;101632.09;;;3.69;100.00
3917;BME280;1973;50.518;7.318;2023-01-27T07:02:45;101625.50;;;3.71;100.00
3917;BME280;1973;50.518;7.318;2023-01-27T07:05:11;101628.34;;;3.70;100.00
3917;BME280;1973;50.518;7.318;2023-01-27T07:07:38;101633.81;;;3.70;100.00
3917;BME280;1973;50.518;7.318;2023-01-27T07:10:06;101623.94;;;3.69;100.00
3917;BME280;1973;50.518;7.318;2023-01-27T07:12:33;101623.94;;;3.69;100.00
3917;BME280;1973;50.518;7.318;2023-01-27T07:15:07;101635.84;;;3.68;100.00
3917;BME280;1973;50.518;7.318;2023-01-27T07:17:35;101635.13;;;3.66;100.00
3917;BME280;1973;50.518;7.318;2023-01-27T07:20:02;101645.00;;;3.67;100.00
3917;BME280;1973;50.518;7.318;2023-01-27T07:22:29;101644.13;;;3.66;100.00
3917;BME280;1973;50.518;7.318;2023-01-27T07:24:55;101641.59;;;3.65;100.00
3917;BME280;1973;50.518;7.318;2023-01-27T07:27:23;101651.47;;;3.66;100.00
3917;BME280;1973;50.518;7.318;2023-01-27T07:29:50;101650.44;;;3.67;100.00
3917;BME280;1973;50.518;7.318;2023-01-27T07:32:17;101651.16;;;3.69;100.00
3917;BME280;1973;50.518;7.318;2023-01-27T07:34:43;101654.44;;;3.72;100.00
3917;BME280;1973;50.518;7.318;2023-01-27T07:37:10;101651.88;;;3.71;100.00
3917;BME280;1973;50.518;7.318;2023-01-27T07:39:37;101649.31;;;3.69;100.00
3917;BME280;1973;50.518;7.318;2023-01-27T07:42:04;101653.72;;;3.70;100.00
3917;BME280;1973;50.518;7.318;2023-01-27T07:44:31;101647.28;;;3.71;100.00
3917;BME280;1973;50.518;7.318;2023-01-27T07:46:58;101653.41;;;3.73;100.00
3917;BME280;1973;50.518;7.318;2023-01-27T07:49:24;101655.88;;;3.76;100.00
3917;BME280;1973;50.518;7.318;2023-01-27T07:51:53;101654.69;;;3.79;100.00
3917;BME280;1973;50.518;7.318;2023-01-27T07:54:19;101655.56;;;3.79;100.00
3917;BME280;1973;50.518;7.318;2023-01-27T07:56:46;101656.13;;;3.83;100.00
3917;BME280;1973;50.518;7.318;2023-01-27T07:59:12;101651.34;;;3.85;100.00
3917;BME280;1973;50.518;7.318;2023-01-27T08:01:39;101652.94;;;3.87;100.00
3917;BME280;1973;50.518;7.318;2023-01-27T08:04:07;101659.94;;;3.90;100.00
3917;BME280;1973;50.518;7.318;2023-01-27T08:06:33;101663.66;;;3.89;100.00
3917;BME280;1973;50.518;7.318;2023-01-27T08:09:00;101664.41;;;3.91;100.00
3917;BME280;1973;50.518;7.318;2023-01-27T08:11:26;101663.22;;;3.93;100.00
3917;BME280;1973;50.518;7.318;2023-01-27T08:13:53;101665.81;;;3.95;100.00
3917;BME280;1973;50.518;7.318;2023-01-27T08:16:19;101664.47;;;3.99;100.00
3917;BME280;1973;50.518;7.318;2023-01-27T08:18:46;101672.63;;;3.99;100.00
3917;BME280;1973;50.518;7.318;2023-01-27T08:21:12;101675.78;;;4.04;100.00
3917;BME280;1973;50.518;7.318;2023-01-27T08:23:38;101676.50;;;4.06;100.00
3917;BME280;1973;50.518;7.318;2023-01-27T08:26:05;101680.59;;;4.10;100.00
3917;BME280;1973;50.518;7.318;2023-01-27T08:28:34;101683.75;;;4.15;100.00
3917;BME280;1973;50.518;7.318;2023-01-27T08:31:09;101684.28;;;4.19;100.00
3917;BME280;1973;50.518;7.318;2023-01-27T08:33:36;101685.56;;;4.24;100.00
3917;BME280;1973;50.518;7.318;2023-01-27T08:36:09;101694.44;;;4.26;100.00
3917;BME280;1973;50.518;7.318;2023-01-27T08:38:36;101690.53;;;4.29;100.00
3917;BME280;1973;50.518;7.318;2023-01-27T08:41:18;101694.84;;;4.31;100.00
3917;BME280;1973;50.518;7.318;2023-01-27T08:43:45;101685.63;;;4.32;100.00
3917;BME280;1973;50.518;7.318;2023-01-27T08:46:12;101685.03;;;4.38;100.00
3917;BME280;1973;50.518;7.318;2023-01-27T08:48:39;101690.31;;;4.40;100.00
3917;BME280;1973;50.518;7.318;2023-01-27T08:51:06;101680.69;;;4.46;100.00
3917;BME280;1973;50.518;7.318;2023-01-27T08:53:34;101678.81;;;4.46;100.00
3917;BME280;1973;50.518;7.318;2023-01-27T08:56:04;101689.28;;;4.51;100.00
3917;BME280;1973;50.518;7.318;2023-01-27T08:58:31;101694.88;;;4.49;100.00
3917;BME280;1973;50.518;7.318;2023-01-27T09:01:02;101693.00;;;4.50;100.00
3917;BME280;1973;50.518;7.318;2023-01-27T09:03:30;101697.28;;;4.52;100.00
3917;BME280;1973;50.518;7.318;2023-01-27T09:05:58;101697.44;;;4.51;100.00
3917;BME280;1973;50.518;7.318;2023-01-27T09:08:25;101693.69;;;4.52;100.00
3917;BME280;1973;50.518;7.318;2023-01-27T09:10:51;101699.00;;;4.53;100.00
3917;BME280;1973;50.518;7.318;2023-01-27T09:13:18;101699.00;;;4.53;100.00
3917;BME280;1973;50.518;7.318;2023-01-27T09:15:50;101705.00;;;4.57;100.00
3917;BME280;1973;50.518;7.318;2023-01-27T09:18:17;101702.97;;;4.59;100.00
3917;BME280;1973;50.518;7.318;2023-01-27T09:20:43;101695.81;;;4.58;100.00
3917;BME280;1973;50.518;7.318;2023-01-27T09:23:10;101705.69;;;4.59;100.00
3917;BME280;1973;50.518;7.318;2023-01-27T09:25:37;101707.28;;;4.61;100.00
3917;BME280;1973;50.518;7.318;2023-01-27T09:28:03;101709.13;;;4.61;100.00
3917;BME280;1973;50.518;7.318;2023-01-27T09:30:29;101710.56;;;4.65;100.00
3917;BME280;1973;50.518;7.318;2023-01-27T09:32:57;101712.41;;;4.64;100.00
3917;BME280;1973;50.518;7.318;2023-01-27T09:35:26;101708.50;;;4.67;100.00
3917;BME280;1973;50.518;7.318;2023-01-27T09:37:56;101711.22;;;4.67;100.00
3917;BME280;1973;50.518;7.318;2023-01-27T09:46:28;101707.66;;;4.66;100.00
3917;BME280;1973;50.518;7.318;2023-01-27T09:52:08;101714.13;;;4.65;100.00
3917;BME280;1973;50.518;7.318;2023-01-27T09:55:02;101716.69;;;4.67;100.00
3917;BME280;1973;50.518;7.318;2023-01-27T09:58:04;101719.59;;;4.65;100.00
3917;BME280;1973;50.518;7.318;2023-01-27T10:00:42;101717.69;;;4.66;100.00
3917;BME280;1973;50.518;7.318;2023-01-27T10:03:25;101718.72;;;4.65;100.00
3917;BME280;1973;50.518;7.318;2023-01-27T10:09:00;101722.22;;;4.75;100.00
3917;BME280;1973;50.518;7.318;2023-01-27T10:12:10;101724.09;;;4.74;100.00
3917;BME280;1973;50.518;7.318;2023-01-27T10:14:51;101728.91;;;4.80;100.00
3917;BME280;1973;50.518;7.318;2023-01-27T10:17:45;101725.91;;;4.83;100.00
3917;BME280;1973;50.518;7.318;2023-01-27T10:26:44;101731.06;;;4.86;100.00
3917;BME280;1973;50.518;7.318;2023-01-27T10:34:26;101729.31;;;5.03;100.00
3917;BME280;1973;50.518;7.318;2023-01-27T10:37:03;101731.91;;;5.05;100.00
3917;BME280;1973;50.518;7.318;2023-01-27T10:42:49;101732.84;;;5.13;100.00
3917;BME280;1973;50.518;7.318;2023-01-27T10:45:41;101736.97;;;5.17;100.00
3917;BME280;1973;50.518;7.318;2023-01-27T10:50:44;101738.06;;;5.24;100.00
3917;BME280;1973;50.518;7.318;2023-01-27T10:53:49;101740.06;;;5.22;100.00
3917;BME280;1973;50.518;7.318;2023-01-27T10:59:11;101733.97;;;5.28;100.00
3917;BME280;1973;50.518;7.318;2023-01-27T11:01:46;101731.63;;;5.33;100.00
3917;BME280;1973;50.518;7.318;2023-01-27T11:04:37;101729.28;;;5.38;100.00
3917;BME280;1973;50.518;7.318;2023-01-27T11:07:06;101733.78;;;5.48;100.00
3917;BME280;1973;50.518;7.318;2023-01-27T11:10:02;101724.78;;;5.55;100.00
3917;BME280;1973;50.518;7.318;2023-01-27T11:12:31;101736.50;;;5.65;100.00
3917;BME280;1973;50.518;7.318;2023-01-27T11:15:00;101738.38;;;5.73;100.00
3917;BME280;1973;50.518;7.318;2023-01-27T11:17:33;101730.25;;;5.81;100.00
3917;BME280;1973;50.518;7.318;2023-01-27T11:20:19;101736.81;;;5.88;100.00
3917;BME280;1973;50.518;7.318;2023-01-27T11:23:20;101734.84;;;5.98;100.00
3917;BME280;1973;50.518;7.318;2023-01-27T11:34:24;101728.00;;;6.44;100.00
3917;BME280;1973;50.518;7.318;2023-01-27T11:36:51;101713.50;;;6.52;100.00
3917;BME280;1973;50.518;7.318;2023-01-27T11:39:18;101715.41;;;6.59;100.00
3917;BME280;1973;50.518;7.318;2023-01-27T11:41:50;101714.72;;;6.65;100.00
3917;BME280;1973;50.518;7.318;2023-01-27T11:44:20;101718.16;;;6.67;100.00
3917;BME280;1973;50.518;7.318;2023-01-27T11:46:48;101708.75;;;6.70;100.00
3917;BME280;1973;50.518;7.318;2023-01-27T11:49:20;101709.63;;;6.70;100.00
3917;BME280;1973;50.518;7.318;2023-01-27T11:51:47;101705.69;;;6.73;100.00
3917;BME280;1973;50.518;7.318;2023-01-27T11:54:19;101707.06;;;6.77;100.00
3917;BME280;1973;50.518;7.318;2023-01-27T11:56:48;101700.56;;;6.78;100.00
3917;BME280;1973;50.518;7.318;2023-01-27T11:59:37;101699.56;;;6.79;100.00
3917;BME280;1973;50.518;7.318;2023-01-27T12:07:10;101685.88;;;6.87;100.00
3917;BME280;1973;50.518;7.318;2023-01-27T12:09:40;101681.75;;;6.99;100.00
3917;BME280;1973;50.518;7.318;2023-01-27T12:15:03;101683.66;;;7.15;100.00
3917;BME280;1973;50.518;7.318;2023-01-27T12:17:38;101675.78;;;7.20;100.00
3917;BME280;1973;50.518;7.318;2023-01-27T12:22:51;101672.50;;;7.24;100.00
3917;BME280;1973;50.518;7.318;2023-01-27T12:25:23;101660.53;;;7.25;100.00
3917;BME280;1973;50.518;7.318;2023-01-27T12:27:58;101654.03;;;7.26;100.00
3917;BME280;1973;50.518;7.318;2023-01-27T12:30:29;101646.50;;;7.28;100.00
3917;BME280;1973;50.518;7.318;2023-01-27T12:32:57;101648.22;;;7.29;100.00
3917;BME280;1973;50.518;7.318;2023-01-27T12:35:35;101639.66;;;7.24;100.00
3917;BME280;1973;50.518;7.318;2023-01-27T12:38:06;101643.44;;;7.23;100.00
3917;BME280;1973;50.518;7.318;2023-01-27T12:40:41;101637.47;;;7.20;100.00
3917;BME280;1973;50.518;7.318;2023-01-27T12:43:16;101644.09;;;7.17;100.00
3917;BME280;1973;50.518;7.318;2023-01-27T12:45:44;101645.16;;;7.16;100.00
3917;BME280;1973;50.518;7.318;2023-01-27T12:48:29;101640.72;;;7.15;100.00
3917;BME280;1973;50.518;7.318;2023-01-27T12:51:05;101639.34;;;7.11;100.00
3917;BME280;1973;50.518;7.318;2023-01-27T12:53:37;101638.97;;;7.06;100.00
3917;BME280;1973;50.518;7.318;2023-01-27T12:56:19;101638.31;;;7.04;100.00
3917;BME280;1973;50.518;7.318;2023-01-27T13:01:24;101645.16;;;7.00;100.00
3917;BME280;1973;50.518;7.318;2023-01-27T13:04:15;101641.75;;;6.98;100.00
3917;BME280;1973;50.518;7.318;2023-01-27T13:07:12;101640.19;;;6.96;100.00
3917;BME280;1973;50.518;7.318;2023-01-27T13:09:51;101642.78;;;6.97;100.00
3917;BME280;1973;50.518;7.318;2023-01-27T13:12:21;101646.88;;;7.01;100.00
3917;BME280;1973;50.518;7.318;2023-01-27T13:14:50;101645.81;;;7.02;100.00
3917;BME280;1973;50.518;7.318;2023-01-27T13:17:45;101645.66;;;7.04;100.00
3917;BME280;1973;50.518;7.318;2023-01-27T13:20:16;101645.16;;;7.08;100.00
3917;BME280;1973;50.518;7.318;2023-01-27T13:22:47;101643.28;;;7.09;100.00
3917;BME280;1973;50.518;7.318;2023-01-27T13:25:18;101653.03;;;7.11;100.00
3917;BME280;1973;50.518;7.318;2023-01-27T13:27:48;101638.31;;;7.12;100.00
3917;BME280;1973;50.518;7.318;2023-01-27T13:30:22;101636.75;;;7.18;100.00
3917;BME280;1973;50.518;7.318;2023-01-27T13:33:01;101641.38;;;7.25;100.00
3917;BME280;1973;50.518;7.318;2023-01-27T13:35:32;101638.63;;;7.33;100.00
3917;BME280;1973;50.518;7.318;2023-01-27T13:38:11;101639.28;;;7.44;100.00
3917;BME280;1973;50.518;7.318;2023-01-27T13:40:43;101624.72;;;7.51;100.00
3917;BME280;1973;50.518;7.318;2023-01-27T13:43:21;101629.50;;;7.57;100.00
3917;BME280;1973;50.518;7.318;2023-01-27T13:46:09;101631.69;;;7.62;100.00
3917;BME280;1973;50.518;7.318;2023-01-27T13:48:45;101633.91;;;7.66;100.00
3917;BME280;1973;50.518;7.318;2023-01-27T13:51:16;101641.78;;;7.69;100.00
3917;BME280;1973;50.518;7.318;2023-01-27T13:53:44;101645.38;;;7.70;100.00
3917;BME280;1973;50.518;7.318;2023-01-27T14:01:45;101659.78;;;7.72;100.00
3917;BME280;1973;50.518;7.318;2023-01-27T14:07:21;101668.38;;;7.61;100.00
3917;BME280;1973;50.518;7.318;2023-01-27T14:09:57;101654.31;;;7.56;100.00
3917;BME280;1973;50.518;7.318;2023-01-27T14:12:48;101665.81;;;7.51;100.00
3917;BME280;1973;50.518;7.318;2023-01-27T14:15:27;101669.06;;;7.47;100.00
3917;BME280;1973;50.518;7.318;2023-01-27T14:18:19;101674.56;;;7.39;100.00
3917;BME280;1973;50.518;7.318;2023-01-27T14:21:13;101679.03;;;7.31;100.00
3917;BME280;1973;50.518;7.318;2023-01-27T14:24:10;101679.72;;;7.25;100.00
3917;BME280;1973;50.518;7.318;2023-01-27T14:26:52;101680.91;;;7.23;100.00
3917;BME280;1973;50.518;7.318;2023-01-27T14:29:29;101686.03;;;7.18;100.00
3917;BME280;1973;50.518;7.318;2023-01-27T14:32:13;101688.28;;;7.14;100.00
3917;BME280;1973;50.518;7.318;2023-01-27T14:35:08;101691.50;;;7.10;100.00
3917;BME280;1973;50.518;7.318;2023-01-27T14:37:57;101694.78;;;7.05;100.00